Time;durP1;ratioP1;P1;durP2;ratioP2;P2;SDS_P1;SDS_P2;PMS_P1;PMS_P2;Temp;Humidity;BMP_temperature;BMP_pressure;BME280_temperature;BME280_humidity;BME280_pressure;Samples;Min_cycle;Max_cycle;Signal;HPM_P1;HPM_P2
2022/01/14 00:01:14;;;;;;;42.88;27.90;;;3.60;76.80;;;;;;4999539;28;20819;-75
2022/01/14 00:03:42;;;;;;;41.83;25.40;;;3.60;76.90;;;;;;5001311;28;20209;-74
2022/01/14 00:06:10;;;;;;;40.78;24.70;;;3.60;76.90;;;;;;5019889;28;20278;-74
2022/01/14 00:08:38;;;;;;;37.97;24.02;;;3.60;76.90;;;;;;5020645;28;20226;-74
2022/01/14 00:11:14;;;;;;;36.03;23.58;;;3.60;76.90;;;;;;5014487;28;20239;-74
2022/01/14 00:13:52;;;;;;;35.35;23.95;;;3.60;76.90;;;;;;5016607;28;20671;-74
2022/01/14 00:16:20;;;;;;;37.30;23.70;;;3.50;76.90;;;;;;5014461;28;20193;-74
2022/01/14 00:18:48;;;;;;;33.38;22.60;;;3.50;77.00;;;;;;5020692;28;20244;-74
2022/01/14 00:21:16;;;;;;;38.08;23.88;;;3.50;77.10;;;;;;5020056;28;20247;-74
2022/01/14 00:23:49;;;;;;;34.45;23.70;;;3.50;77.10;;;;;;5016254;28;20296;-75
2022/01/14 00:31:55;;;;;;;35.33;22.55;;;3.50;77.20;;;;;;5012804;28;20198;-74
2022/01/14 00:34:23;;;;;;;35.05;23.50;;;3.50;77.20;;;;;;5017673;28;20228;-74
2022/01/14 00:36:51;;;;;;;37.63;24.05;;;3.50;77.20;;;;;;5004869;28;20237;-74
2022/01/14 00:39:19;;;;;;;47.42;24.95;;;3.50;77.30;;;;;;5003460;28;20201;-74
2022/01/14 00:41:47;;;;;;;36.55;25.27;;;3.50;77.30;;;;;;5017400;28;20586;-74
2022/01/14 00:44:17;;;;;;;40.75;24.63;;;3.50;77.40;;;;;;5007063;28;20256;-74
2022/01/14 00:46:48;;;;;;;60.22;25.27;;;3.50;77.40;;;;;;5017958;28;20221;-74
2022/01/14 00:49:17;;;;;;;41.63;24.60;;;3.50;77.50;;;;;;5020222;28;20220;-74
2022/01/14 00:51:46;;;;;;;33.70;23.95;;;3.50;77.50;;;;;;5016967;28;20206;-74
2022/01/14 00:54:15;;;;;;;33.58;23.63;;;3.50;77.50;;;;;;5020931;28;20267;-74
2022/01/14 00:56:49;;;;;;;34.33;23.95;;;3.50;77.60;;;;;;5008401;28;20275;-74
2022/01/14 00:59:17;;;;;;;34.80;22.63;;;3.50;77.60;;;;;;5020440;28;20236;-74
2022/01/14 01:01:48;;;;;;;39.30;25.02;;;3.50;77.60;;;;;;5018482;28;20224;-74
2022/01/14 01:04:19;;;;;;;36.45;23.92;;;3.50;77.60;;;;;;5018736;28;20339;-74
2022/01/14 01:06:48;;;;;;;33.33;22.38;;;3.50;77.70;;;;;;5016566;28;20733;-73
2022/01/14 01:09:16;;;;;;;36.40;23.73;;;3.50;77.70;;;;;;5020021;28;20216;-74
2022/01/14 01:11:50;;;;;;;36.50;24.05;;;3.50;77.70;;;;;;5016544;28;20255;-74
2022/01/14 01:14:25;;;;;;;41.55;23.63;;;3.40;77.70;;;;;;5016814;28;20735;-74
2022/01/14 01:16:53;;;;;;;33.60;22.33;;;3.40;77.80;;;;;;5019746;28;20223;-74
2022/01/14 01:19:21;;;;;;;33.42;22.67;;;3.40;77.80;;;;;;4997926;28;20201;-74
2022/01/14 01:21:49;;;;;;;43.40;24.00;;;3.40;77.80;;;;;;5017022;28;20260;-74
2022/01/14 01:24:30;;;;;;;34.92;22.30;;;3.40;77.70;;;;;;5005439;28;20631;-74
2022/01/14 01:27:03;;;;;;;35.03;23.13;;;3.40;77.80;;;;;;5018141;28;20243;-74
2022/01/14 01:29:48;;;;;;;34.30;22.67;;;3.40;77.80;;;;;;5014671;28;20214;-74
2022/01/14 01:32:16;;;;;;;34.63;22.67;;;3.40;77.90;;;;;;5018034;28;20204;-74
2022/01/14 01:34:44;;;;;;;39.22;25.75;;;3.40;77.90;;;;;;5019545;28;20290;-74
2022/01/14 01:37:11;;;;;;;50.65;26.13;;;3.30;77.90;;;;;;5013575;28;20757;-74
2022/01/14 01:39:39;;;;;;;44.55;24.90;;;3.40;77.90;;;;;;5010884;28;20248;-74
2022/01/14 01:42:09;;;;;;;38.72;23.35;;;3.30;77.90;;;;;;5015544;28;20208;-74
2022/01/14 01:44:40;;;;;;;40.83;25.02;;;3.30;77.90;;;;;;5015681;28;20197;-75
2022/01/14 01:47:08;;;;;;;37.25;22.60;;;3.30;78.00;;;;;;5015476;28;20283;-74
2022/01/14 01:49:38;;;;;;;34.15;22.10;;;3.30;78.00;;;;;;5013561;28;20241;-74
2022/01/14 01:52:08;;;;;;;38.42;22.80;;;3.30;78.00;;;;;;5018654;28;20197;-74
2022/01/14 01:54:37;;;;;;;34.95;22.75;;;3.20;77.90;;;;;;5017447;28;20265;-74
2022/01/14 01:57:05;;;;;;;34.83;22.10;;;3.20;77.80;;;;;;5015546;28;20291;-74
2022/01/14 01:59:33;;;;;;;46.85;26.55;;;3.20;77.90;;;;;;5017733;28;20213;-74
2022/01/14 02:02:05;;;;;;;37.83;23.55;;;3.20;78.00;;;;;;5002612;28;20201;-75
2022/01/14 02:04:33;;;;;;;35.00;23.52;;;3.10;78.00;;;;;;5006396;28;20250;-74
2022/01/14 02:07:01;;;;;;;34.45;22.45;;;3.10;78.10;;;;;;5012778;28;20225;-74
2022/01/14 02:09:29;;;;;;;33.00;21.52;;;3.20;78.20;;;;;;5022058;28;20209;-74
2022/01/14 02:11:57;;;;;;;39.97;23.02;;;3.10;78.20;;;;;;5017624;28;20206;-74
2022/01/14 02:14:51;;;;;;;34.22;21.88;;;3.20;78.20;;;;;;5003820;28;20216;-74
2022/01/14 02:17:34;;;;;;;32.10;21.60;;;3.20;78.20;;;;;;5020583;28;20280;-74
2022/01/14 02:22:55;;;;;;;34.47;21.80;;;3.10;78.20;;;;;;5014862;28;20250;-74
2022/01/14 02:25:29;;;;;;;30.60;21.45;;;3.10;78.20;;;;;;5017259;28;20197;-74
2022/01/14 02:28:00;;;;;;;35.30;22.58;;;3.10;78.30;;;;;;5017881;28;20267;-74
2022/01/14 02:30:30;;;;;;;36.45;21.10;;;3.10;78.30;;;;;;5020480;28;20216;-74
2022/01/14 02:32:58;;;;;;;36.15;22.40;;;3.10;78.30;;;;;;5020070;28;20877;-73
2022/01/14 02:35:29;;;;;;;34.17;22.20;;;3.10;78.10;;;;;;5019909;28;20264;-74
2022/01/14 02:37:57;;;;;;;36.88;21.15;;;3.00;78.20;;;;;;5016623;28;20223;-74
2022/01/14 02:40:26;;;;;;;39.55;22.48;;;3.00;78.40;;;;;;5021646;28;20205;-74
2022/01/14 02:42:58;;;;;;;29.45;19.55;;;3.00;78.40;;;;;;5021072;28;20189;-74
2022/01/14 02:45:30;;;;;;;32.05;21.80;;;3.00;78.40;;;;;;5020577;28;20196;-74
2022/01/14 02:47:58;;;;;;;33.95;20.85;;;3.00;78.50;;;;;;5023049;28;20221;-74
2022/01/14 02:50:36;;;;;;;32.05;21.33;;;3.00;78.40;;;;;;5011033;28;20263;-74
2022/01/14 02:53:13;;;;;;;31.65;20.35;;;3.00;78.40;;;;;;5004081;28;20200;-74
2022/01/14 02:55:43;;;;;;;35.63;21.27;;;3.00;78.50;;;;;;5006029;28;20298;-74
2022/01/14 02:58:11;;;;;;;31.15;19.52;;;3.00;78.50;;;;;;5018867;28;20233;-74
2022/01/14 03:00:39;;;;;;;35.55;21.27;;;3.00;78.50;;;;;;5021505;28;20670;-74
2022/01/14 03:03:09;;;;;;;37.33;21.92;;;3.00;78.50;;;;;;5020358;28;20208;-74
2022/01/14 03:05:38;;;;;;;35.70;21.23;;;3.00;78.50;;;;;;5001422;28;20201;-74
2022/01/14 03:08:06;;;;;;;39.30;21.92;;;3.00;78.50;;;;;;5019601;28;20228;-74
2022/01/14 03:10:34;;;;;;;33.13;21.70;;;3.00;78.60;;;;;;5020766;28;20621;-74
2022/01/14 03:13:02;;;;;;;34.15;21.10;;;3.00;78.50;;;;;;5006925;28;20886;-74
2022/01/14 03:15:30;;;;;;;33.78;20.75;;;3.00;78.60;;;;;;5019750;28;20275;-74
2022/01/14 03:17:58;;;;;;;31.17;19.85;;;3.00;78.60;;;;;;5004181;28;20269;-74
2022/01/14 03:23:11;;;;;;;38.05;22.63;;;3.00;78.60;;;;;;4998658;28;20255;-74
2022/01/14 03:25:48;;;;;;;38.20;20.58;;;3.00;78.60;;;;;;5021069;28;20264;-74
2022/01/14 03:28:18;;;;;;;34.05;21.25;;;3.00;78.60;;;;;;5015796;28;20217;-75
2022/01/14 03:30:47;;;;;;;40.47;21.52;;;3.00;78.70;;;;;;5018913;28;20216;-74
2022/01/14 03:33:16;;;;;;;33.63;22.17;;;3.00;78.70;;;;;;5004778;28;20275;-74
2022/01/14 03:35:44;;;;;;;32.22;20.73;;;3.00;78.60;;;;;;5017516;28;20248;-74
2022/01/14 03:38:13;;;;;;;32.88;20.45;;;2.90;78.70;;;;;;5018563;28;20221;-74
2022/01/14 03:40:41;;;;;;;31.50;19.95;;;2.90;78.70;;;;;;5017221;28;20252;-74
2022/01/14 03:43:10;;;;;;;38.00;21.20;;;2.90;78.70;;;;;;5021133;28;20194;-74
2022/01/14 03:45:39;;;;;;;36.20;22.02;;;2.90;78.80;;;;;;5017576;28;20263;-74
2022/01/14 03:48:08;;;;;;;32.80;21.67;;;3.00;78.70;;;;;;5005470;28;20217;-73
2022/01/14 03:50:37;;;;;;;33.38;21.13;;;3.00;78.80;;;;;;5016205;28;20263;-74
2022/01/14 03:53:05;;;;;;;31.02;20.80;;;3.00;78.80;;;;;;5005035;28;20272;-74
2022/01/14 03:55:39;;;;;;;32.55;21.00;;;3.00;78.80;;;;;;5021431;28;20240;-74
2022/01/14 03:58:23;;;;;;;30.80;20.52;;;3.00;78.80;;;;;;5003224;28;20231;-74
2022/01/14 04:00:52;;;;;;;36.72;22.90;;;2.90;78.70;;;;;;5022253;28;20201;-74
2022/01/14 04:03:20;;;;;;;35.03;22.38;;;2.90;78.70;;;;;;5016716;28;20293;-74
2022/01/14 04:05:48;;;;;;;34.70;20.70;;;2.90;78.70;;;;;;5018750;28;20207;-74
2022/01/14 04:08:16;;;;;;;37.47;21.38;;;2.90;78.70;;;;;;5018685;28;20226;-74
2022/01/14 04:10:49;;;;;;;57.67;26.63;;;2.90;78.70;;;;;;5018225;28;20519;-74
2022/01/14 04:13:21;;;;;;;38.47;23.75;;;2.90;78.70;;;;;;5002742;28;20202;-74
2022/01/14 04:15:49;;;;;;;41.33;22.17;;;2.80;78.60;;;;;;5021549;28;20729;-74
2022/01/14 04:18:20;;;;;;;39.50;23.25;;;2.80;78.70;;;;;;5018493;28;20286;-74
2022/01/14 04:20:50;;;;;;;34.78;21.00;;;2.80;78.70;;;;;;5019298;28;20197;-74
2022/01/14 04:23:19;;;;;;;32.67;20.92;;;2.80;78.70;;;;;;5018780;28;20197;-74
2022/01/14 04:25:51;;;;;;;42.22;23.60;;;2.80;78.70;;;;;;5022262;28;20204;-74
2022/01/14 04:28:20;;;;;;;36.28;22.20;;;2.80;78.70;;;;;;5002724;28;20225;-74
2022/01/14 04:30:54;;;;;;;34.85;21.85;;;2.80;78.60;;;;;;5020770;28;20208;-74
2022/01/14 04:33:22;;;;;;;38.83;23.40;;;2.70;78.70;;;;;;5019920;28;20197;-74
2022/01/14 04:35:50;;;;;;;33.67;22.58;;;2.70;78.60;;;;;;5021626;28;20536;-74
2022/01/14 04:38:18;;;;;;;37.58;22.60;;;2.70;78.60;;;;;;5018129;28;20221;-74
2022/01/14 04:40:46;;;;;;;35.85;21.25;;;2.70;78.60;;;;;;5017940;28;20205;-74
2022/01/14 04:43:19;;;;;;;34.90;20.65;;;2.70;78.60;;;;;;5006816;28;20215;-74
2022/01/14 04:46:02;;;;;;;33.63;20.75;;;2.60;78.50;;;;;;5019840;28;20580;-75
2022/01/14 04:48:32;;;;;;;43.22;24.70;;;2.60;78.60;;;;;;5020530;28;20232;-74
2022/01/14 04:51:01;;;;;;;42.40;23.63;;;2.60;78.60;;;;;;5019820;28;20280;-74
2022/01/14 04:53:30;;;;;;;38.60;23.15;;;2.60;78.70;;;;;;5022211;28;20201;-73
2022/01/14 04:55:58;;;;;;;40.72;23.50;;;2.60;78.60;;;;;;5023286;28;20662;-74
2022/01/14 04:58:29;;;;;;;44.50;26.77;;;2.60;78.60;;;;;;5016845;28;20221;-74
2022/01/14 05:00:57;;;;;;;58.80;34.10;;;2.50;78.50;;;;;;5004062;28;20209;-74
2022/01/14 05:03:25;;;;;;;68.78;38.88;;;2.50;78.50;;;;;;5017332;28;20220;-74
2022/01/14 05:05:57;;;;;;;61.67;35.20;;;2.50;78.50;;;;;;5018314;28;20205;-74
2022/01/14 05:08:28;;;;;;;54.20;27.92;;;2.50;78.50;;;;;;5021536;28;20229;-74
2022/01/14 05:11:05;;;;;;;53.40;24.70;;;2.40;78.60;;;;;;5018946;28;20197;-74
2022/01/14 05:13:34;;;;;;;54.72;25.52;;;2.40;78.50;;;;;;5019664;28;20262;-74
2022/01/14 05:16:02;;;;;;;63.05;27.45;;;2.40;78.50;;;;;;5017899;28;20703;-75
2022/01/14 05:18:30;;;;;;;50.63;25.13;;;2.30;78.40;;;;;;5020538;28;20765;-74
2022/01/14 05:20:58;;;;;;;39.67;23.80;;;2.20;78.40;;;;;;5018081;28;20215;-75
2022/01/14 05:23:26;;;;;;;32.97;21.08;;;2.20;78.50;;;;;;5021000;28;20200;-74
2022/01/14 05:25:54;;;;;;;32.75;21.50;;;2.20;78.70;;;;;;5018452;28;20820;-74
2022/01/14 05:28:22;;;;;;;47.47;22.50;;;2.20;78.70;;;;;;5001429;28;20764;-74
2022/01/14 05:30:51;;;;;;;48.53;21.95;;;2.20;78.70;;;;;;5019926;28;20198;-74
2022/01/14 05:33:19;;;;;;;41.17;19.42;;;2.20;78.60;;;;;;5019952;28;20240;-74
2022/01/14 05:35:47;;;;;;;32.10;20.33;;;2.10;78.50;;;;;;5016772;28;20674;-74
2022/01/14 05:38:15;;;;;;;34.22;19.50;;;2.10;78.60;;;;;;5015575;28;20233;-74
2022/01/14 05:40:43;;;;;;;29.60;18.80;;;2.10;78.70;;;;;;5013133;28;20284;-74
2022/01/14 05:43:11;;;;;;;30.42;18.90;;;2.10;78.80;;;;;;5020127;28;20200;-74
2022/01/14 05:45:39;;;;;;;42.83;19.70;;;2.10;78.90;;;;;;4998273;28;20942;-74
2022/01/14 05:48:08;;;;;;;47.15;22.60;;;2.10;78.90;;;;;;5017750;28;20221;-73
2022/01/14 05:50:36;;;;;;;61.80;22.98;;;2.10;78.80;;;;;;5019358;28;20209;-73
2022/01/14 05:53:06;;;;;;;74.60;25.90;;;2.10;78.80;;;;;;5014980;28;20212;-73
2022/01/14 05:55:34;;;;;;;103.95;25.65;;;2.10;78.80;;;;;;5017014;28;20201;-74
2022/01/14 05:58:02;;;;;;;136.25;27.20;;;2.10;78.60;;;;;;5013524;28;20229;-73
2022/01/14 06:00:30;;;;;;;89.30;25.13;;;2.00;78.50;;;;;;5014387;28;20201;-73
2022/01/14 06:02:58;;;;;;;55.78;25.40;;;1.90;78.50;;;;;;5017638;28;20265;-73
2022/01/14 06:05:28;;;;;;;69.35;24.30;;;1.90;78.60;;;;;;5020001;28;20207;-73
2022/01/14 06:07:56;;;;;;;99.28;25.75;;;1.80;78.70;;;;;;5020273;28;20209;-74
2022/01/14 06:10:24;;;;;;;45.08;23.83;;;1.80;78.70;;;;;;5020259;28;20210;-74
2022/01/14 06:12:52;;;;;;;113.40;34.50;;;1.80;78.80;;;;;;5021424;28;20252;-74
2022/01/14 06:15:20;;;;;;;70.85;27.20;;;1.80;79.00;;;;;;5007033;28;20205;-74
2022/01/14 06:17:48;;;;;;;79.68;26.17;;;1.80;78.90;;;;;;5022247;28;20221;-73
2022/01/14 06:20:15;;;;;;;42.20;24.00;;;1.70;79.00;;;;;;5019850;28;20212;-74
2022/01/14 06:22:45;;;;;;;43.40;25.40;;;1.70;79.00;;;;;;5022720;28;20197;-73
2022/01/14 06:25:13;;;;;;;45.47;25.58;;;1.70;79.00;;;;;;5024096;28;20201;-74
2022/01/14 06:27:41;;;;;;;48.90;27.85;;;1.70;79.00;;;;;;5019047;28;20225;-73
2022/01/14 06:30:10;;;;;;;47.90;28.73;;;1.70;79.00;;;;;;5022693;28;20208;-74
2022/01/14 06:32:41;;;;;;;55.85;30.90;;;1.70;79.00;;;;;;5019656;28;20204;-73
2022/01/14 06:35:10;;;;;;;45.78;27.60;;;1.70;79.10;;;;;;5019962;28;20205;-74
2022/01/14 06:37:39;;;;;;;40.92;26.88;;;1.60;79.10;;;;;;5018903;28;20221;-74
2022/01/14 06:40:10;;;;;;;41.63;27.15;;;1.60;79.10;;;;;;5012881;28;20202;-73
2022/01/14 06:42:44;;;;;;;36.30;23.23;;;1.60;79.20;;;;;;5013833;28;20205;-73
2022/01/14 06:45:13;;;;;;;37.15;22.30;;;1.70;79.30;;;;;;5016459;28;20272;-74
2022/01/14 06:47:41;;;;;;;36.55;22.27;;;1.70;79.30;;;;;;5015834;28;20675;-74
2022/01/14 06:50:09;;;;;;;39.25;24.20;;;1.70;79.20;;;;;;5003840;28;20636;-73
2022/01/14 06:52:37;;;;;;;35.72;23.95;;;1.70;79.20;;;;;;5020188;28;20209;-73
2022/01/14 06:55:08;;;;;;;29.30;19.40;;;1.70;79.30;;;;;;5018936;28;20260;-74
2022/01/14 06:57:36;;;;;;;29.02;18.15;;;1.70;79.30;;;;;;5020932;28;20233;-74
2022/01/14 07:00:05;;;;;;;33.15;20.25;;;1.70;79.30;;;;;;5018486;28;20205;-74
2022/01/14 07:02:33;;;;;;;38.58;23.25;;;1.70;79.30;;;;;;5015026;28;20205;-74
2022/01/14 07:05:02;;;;;;;37.28;23.50;;;1.70;79.30;;;;;;5018071;28;20201;-74
2022/01/14 07:07:30;;;;;;;39.80;23.88;;;1.70;79.20;;;;;;5015994;28;20781;-73
2022/01/14 07:09:58;;;;;;;32.85;20.42;;;1.70;79.20;;;;;;5019726;28;20207;-74
2022/01/14 07:12:29;;;;;;;41.55;24.00;;;1.70;79.20;;;;;;5021375;28;20246;-74
2022/01/14 07:14:58;;;;;;;36.33;22.88;;;1.70;79.20;;;;;;5015900;28;20252;-74
2022/01/14 07:17:27;;;;;;;35.88;22.23;;;1.70;79.10;;;;;;5018559;28;20240;-74
2022/01/14 07:19:58;;;;;;;33.65;20.13;;;1.70;79.10;;;;;;5014633;28;20256;-74
2022/01/14 07:22:26;;;;;;;33.90;21.55;;;1.70;79.00;;;;;;5018738;28;20600;-74
2022/01/14 07:24:54;;;;;;;32.83;20.40;;;1.60;79.10;;;;;;5019958;28;20193;-73
2022/01/14 07:27:22;;;;;;;35.33;20.13;;;1.60;79.10;;;;;;5013848;28;20221;-73
2022/01/14 07:29:52;;;;;;;33.05;21.20;;;1.60;79.20;;;;;;5016983;28;20202;-73
2022/01/14 07:32:20;;;;;;;37.08;22.63;;;1.60;79.20;;;;;;5022924;28;20275;-74
2022/01/14 07:34:49;;;;;;;47.15;24.02;;;1.70;79.20;;;;;;5020204;28;20200;-74
2022/01/14 07:37:18;;;;;;;46.10;22.92;;;1.70;79.20;;;;;;5022451;28;20749;-73
2022/01/14 07:39:46;;;;;;;41.38;22.40;;;1.70;79.20;;;;;;5018758;28;20233;-73
2022/01/14 07:42:15;;;;;;;39.42;24.30;;;1.60;79.20;;;;;;5016246;28;20231;-74
2022/01/14 07:44:43;;;;;;;103.40;27.88;;;1.70;79.30;;;;;;5017811;28;20926;-74
2022/01/14 07:47:12;;;;;;;143.43;28.60;;;1.70;79.30;;;;;;5017579;28;20425;-75
2022/01/14 07:49:40;;;;;;;81.20;25.15;;;1.70;79.20;;;;;;5015805;28;20225;-74
2022/01/14 07:52:08;;;;;;;54.15;25.77;;;1.60;79.20;;;;;;5019535;28;20252;-73
2022/01/14 07:54:36;;;;;;;54.50;25.10;;;1.60;79.20;;;;;;5019004;28;20213;-74
2022/01/14 07:57:07;;;;;;;39.97;23.35;;;1.60;79.30;;;;;;5016731;28;20228;-74
2022/01/14 07:59:36;;;;;;;48.10;24.10;;;1.60;79.30;;;;;;5013190;28;20232;-74
2022/01/14 08:02:05;;;;;;;67.68;25.85;;;1.60;79.40;;;;;;5015389;28;20555;-74
2022/01/14 08:04:37;;;;;;;54.35;22.50;;;1.60;79.40;;;;;;5015527;28;20218;-74
2022/01/14 08:07:11;;;;;;;56.55;24.25;;;1.70;79.40;;;;;;5005764;28;20279;-74
2022/01/14 08:09:41;;;;;;;41.00;23.48;;;1.70;79.40;;;;;;4999819;28;20238;-74
2022/01/14 08:12:12;;;;;;;38.42;22.40;;;1.60;79.30;;;;;;5003796;28;20208;-73
2022/01/14 08:14:40;;;;;;;38.40;22.25;;;1.60;79.40;;;;;;5003877;28;20217;-73
2022/01/14 08:17:09;;;;;;;49.92;25.83;;;1.60;79.50;;;;;;5021129;28;20264;-74
2022/01/14 08:19:38;;;;;;;36.70;22.75;;;1.60;79.50;;;;;;5019374;28;20251;-74
2022/01/14 08:22:08;;;;;;;34.28;22.80;;;1.70;79.50;;;;;;5020176;28;20248;-74
2022/01/14 08:24:37;;;;;;;34.58;20.90;;;1.70;79.50;;;;;;5018508;28;20208;-74
2022/01/14 08:27:07;;;;;;;32.42;21.50;;;1.70;79.50;;;;;;5015710;28;20253;-74
2022/01/14 08:29:35;;;;;;;31.98;21.63;;;1.70;79.50;;;;;;5016642;28;20205;-74
2022/01/14 08:32:03;;;;;;;36.08;22.88;;;1.70;79.50;;;;;;5018676;28;20204;-73
2022/01/14 08:34:31;;;;;;;33.42;22.60;;;1.70;79.50;;;;;;5010398;28;20205;-73
2022/01/14 08:37:01;;;;;;;45.13;28.95;;;1.70;79.50;;;;;;5006903;28;20279;-74
2022/01/14 08:39:29;;;;;;;44.95;26.33;;;1.70;79.40;;;;;;5018022;28;20237;-74
2022/01/14 08:41:58;;;;;;;48.78;27.75;;;1.70;79.30;;;;;;5019755;28;20254;-73
2022/01/14 08:44:27;;;;;;;52.30;31.33;;;1.70;79.30;;;;;;5018612;28;20694;-73
2022/01/14 08:46:56;;;;;;;44.67;28.73;;;1.70;79.40;;;;;;5011289;28;20221;-74
2022/01/14 08:49:24;;;;;;;48.50;28.95;;;1.70;79.40;;;;;;5001787;28;20606;-73
2022/01/14 08:51:52;;;;;;;44.72;27.25;;;1.70;79.40;;;;;;5019038;28;20212;-73
2022/01/14 08:54:22;;;;;;;49.50;30.70;;;1.70;79.40;;;;;;5024466;28;20200;-74
2022/01/14 08:56:49;;;;;;;55.25;35.20;;;1.70;79.50;;;;;;5016325;28;20244;-74
2022/01/14 08:59:18;;;;;;;53.60;33.55;;;1.80;79.60;;;;;;5020862;28;20272;-74
2022/01/14 09:01:45;;;;;;;50.55;30.95;;;1.80;79.60;;;;;;5019258;28;20213;-74
2022/01/14 09:04:14;;;;;;;43.92;27.17;;;1.80;79.60;;;;;;5017090;28;20205;-74
2022/01/14 09:06:42;;;;;;;40.53;24.30;;;1.90;79.70;;;;;;5017295;28;20205;-74
2022/01/14 09:09:10;;;;;;;53.08;26.42;;;1.90;79.70;;;;;;5020134;28;20560;-74
2022/01/14 09:11:40;;;;;;;43.72;25.10;;;1.90;79.70;;;;;;5019941;28;20220;-74
2022/01/14 09:14:08;;;;;;;38.95;24.52;;;2.00;79.80;;;;;;5021364;28;20217;-74
2022/01/14 09:16:36;;;;;;;38.08;25.75;;;2.00;79.80;;;;;;5020246;28;20201;-74
2022/01/14 09:19:05;;;;;;;35.20;22.45;;;2.10;79.80;;;;;;5017351;28;20729;-74
2022/01/14 09:21:33;;;;;;;40.08;23.65;;;2.10;79.80;;;;;;5016118;28;20215;-73
2022/01/14 09:24:04;;;;;;;32.60;21.30;;;2.10;79.80;;;;;;5004038;28;20263;-74
2022/01/14 09:26:32;;;;;;;33.10;21.20;;;2.20;79.80;;;;;;5003412;28;20243;-74
2022/01/14 09:29:03;;;;;;;35.45;21.98;;;2.20;79.80;;;;;;5019661;28;20200;-74
2022/01/14 09:31:31;;;;;;;33.83;22.70;;;2.20;79.70;;;;;;5019337;28;20853;-73
2022/01/14 09:34:00;;;;;;;37.45;23.65;;;2.30;79.70;;;;;;5014466;28;20322;-74
2022/01/14 09:36:28;;;;;;;40.30;25.33;;;2.30;79.70;;;;;;5019534;28;20209;-73
2022/01/14 09:38:57;;;;;;;36.00;23.77;;;2.30;79.80;;;;;;5018993;28;20740;-74
2022/01/14 09:41:25;;;;;;;35.03;23.13;;;2.30;79.80;;;;;;5022201;28;20267;-73
2022/01/14 09:43:53;;;;;;;39.15;25.45;;;2.40;79.90;;;;;;5016460;28;20202;-73
2022/01/14 09:46:23;;;;;;;37.15;23.58;;;2.40;80.00;;;;;;5019501;28;20193;-74
2022/01/14 09:48:51;;;;;;;37.40;22.98;;;2.50;80.00;;;;;;5019847;28;20765;-74
2022/01/14 09:51:20;;;;;;;35.30;23.27;;;2.50;80.00;;;;;;5003900;28;20212;-74
2022/01/14 09:53:48;;;;;;;35.78;24.10;;;2.50;80.00;;;;;;5020765;28;20347;-74
2022/01/14 09:56:17;;;;;;;37.72;23.02;;;2.60;80.10;;;;;;5006576;28;20213;-73
2022/01/14 09:58:48;;;;;;;37.35;23.63;;;2.60;80.10;;;;;;5019404;28;20223;-74
2022/01/14 10:01:18;;;;;;;37.90;24.25;;;2.70;80.20;;;;;;5019632;28;20214;-73
2022/01/14 10:03:57;;;;;;;32.28;22.30;;;2.70;80.20;;;;;;5010166;28;20205;-73
2022/01/14 10:06:39;;;;;;;34.35;22.00;;;2.80;80.30;;;;;;5019065;28;20691;-74
2022/01/14 10:09:09;;;;;;;38.25;24.13;;;2.80;80.30;;;;;;5019274;28;20206;-74
2022/01/14 10:11:40;;;;;;;35.38;24.02;;;2.90;80.20;;;;;;5017946;28;20671;-74
2022/01/14 10:14:10;;;;;;;38.00;23.30;;;2.90;80.20;;;;;;5023649;28;20248;-74
2022/01/14 10:16:41;;;;;;;39.45;23.80;;;2.90;80.30;;;;;;5022981;28;20201;-74
2022/01/14 10:19:21;;;;;;;39.15;25.35;;;3.00;80.50;;;;;;5019273;28;20998;-75
2022/01/14 10:21:49;;;;;;;44.47;26.90;;;3.10;80.60;;;;;;5022050;28;20266;-74
2022/01/14 10:24:18;;;;;;;38.92;26.65;;;3.10;80.60;;;;;;5020322;28;20233;-74
2022/01/14 10:26:51;;;;;;;38.58;24.20;;;3.20;80.70;;;;;;5017408;28;20731;-74
2022/01/14 10:29:28;;;;;;;39.08;25.10;;;3.30;80.90;;;;;;5020785;28;20236;-74
2022/01/14 10:31:57;;;;;;;39.72;23.92;;;3.30;81.00;;;;;;5018450;28;20201;-74
2022/01/14 10:34:26;;;;;;;37.80;22.92;;;3.40;81.10;;;;;;5019354;28;20261;-74
2022/01/14 10:37:10;;;;;;;37.03;21.95;;;3.50;81.20;;;;;;5018702;28;20338;-74
2022/01/14 10:39:45;;;;;;;38.38;23.80;;;3.60;81.20;;;;;;5018594;28;20224;-75
2022/01/14 10:42:25;;;;;;;37.65;22.75;;;3.60;81.30;;;;;;5021640;28;20208;-74
2022/01/14 10:45:19;;;;;;;38.30;22.77;;;3.70;81.30;;;;;;5021300;28;20201;-76
2022/01/14 10:47:55;;;;;;;29.45;18.27;;;3.80;81.30;;;;;;5015298;28;20228;-76
2022/01/14 10:50:30;;;;;;;34.70;20.15;;;3.80;81.40;;;;;;5022427;28;20217;-76
2022/01/14 10:52:58;;;;;;;36.90;20.38;;;3.90;81.50;;;;;;5022981;28;20200;-76
2022/01/14 10:55:33;;;;;;;37.45;22.80;;;4.00;81.50;;;;;;5019992;28;20261;-75
2022/01/14 10:58:03;;;;;;;28.25;17.10;;;4.00;81.60;;;;;;5004796;28;20274;-76
2022/01/14 11:00:47;;;;;;;26.77;15.75;;;4.10;81.70;;;;;;5016856;28;20253;-76
2022/01/14 11:03:16;;;;;;;22.10;14.05;;;4.20;81.80;;;;;;5018094;28;20208;-76
2022/01/14 11:05:46;;;;;;;19.48;12.23;;;4.20;81.80;;;;;;5005943;28;20297;-76
2022/01/14 11:08:14;;;;;;;21.40;12.75;;;4.30;82.30;;;;;;5016975;28;20627;-76
2022/01/14 11:10:43;;;;;;;18.27;12.20;;;4.40;82.20;;;;;;5018154;28;20201;-76
2022/01/14 11:13:12;;;;;;;28.73;16.30;;;4.40;82.00;;;;;;5020571;28;20201;-75
2022/01/14 11:15:40;;;;;;;21.25;11.93;;;4.50;82.30;;;;;;5015437;28;20205;-76
2022/01/14 11:18:10;;;;;;;19.20;10.48;;;4.50;82.30;;;;;;5017080;28;20283;-76
2022/01/14 11:23:21;;;;;;;15.98;9.98;;;4.70;82.20;;;;;;5019786;28;20214;-76
2022/01/14 11:25:59;;;;;;;14.88;8.80;;;4.70;82.30;;;;;;5016315;28;20213;-76
2022/01/14 11:28:30;;;;;;;12.45;7.30;;;4.80;82.40;;;;;;5003042;28;20233;-75
2022/01/14 11:30:59;;;;;;;12.70;7.85;;;4.80;82.30;;;;;;5023325;28;20197;-76
2022/01/14 11:33:42;;;;;;;17.85;8.63;;;4.90;82.40;;;;;;5021443;28;20213;-76
2022/01/14 11:36:11;;;;;;;14.15;8.45;;;4.90;82.40;;;;;;5018912;28;20201;-76
2022/01/14 11:38:43;;;;;;;13.63;8.60;;;5.00;82.40;;;;;;5008673;28;21185;-76
2022/01/14 11:41:14;;;;;;;13.80;7.70;;;5.10;82.30;;;;;;5017646;28;20267;-75
2022/01/14 11:43:52;;;;;;;13.10;8.90;;;5.10;82.40;;;;;;5004217;28;20858;-75
2022/01/14 11:46:47;;;;;;;13.55;7.22;;;5.20;82.90;;;;;;5019524;28;20628;-75
2022/01/14 11:49:37;;;;;;;15.75;7.40;;;5.40;83.00;;;;;;5000343;28;20249;-75
2022/01/14 11:52:08;;;;;;;9.93;6.53;;;5.60;83.00;;;;;;5022676;28;20204;-75
2022/01/14 11:54:45;;;;;;;13.05;6.93;;;5.80;82.90;;;;;;5021327;28;20727;-75
2022/01/14 11:57:39;;;;;;;11.40;7.35;;;5.90;82.80;;;;;;5016567;28;20271;-75
2022/01/14 12:00:33;;;;;;;12.75;6.65;;;6.00;82.70;;;;;;5019073;28;20221;-75
2022/01/14 12:03:28;;;;;;;10.40;6.60;;;6.20;82.40;;;;;;5017836;28;20215;-75
2022/01/14 12:06:02;;;;;;;11.07;6.15;;;6.30;82.30;;;;;;5003547;28;20205;-75
2022/01/14 12:08:31;;;;;;;10.23;6.22;;;6.30;82.10;;;;;;5016087;28;20233;-75
2022/01/14 12:11:24;;;;;;;11.07;7.22;;;6.40;82.10;;;;;;5004471;28;20431;-76
2022/01/14 12:13:59;;;;;;;13.38;7.13;;;6.50;81.80;;;;;;5015509;28;20256;-75
2022/01/14 12:16:46;;;;;;;12.38;7.40;;;6.50;81.80;;;;;;5022113;28;20722;-76
2022/01/14 12:19:23;;;;;;;12.18;6.97;;;6.50;81.60;;;;;;5017698;28;20204;-77
2022/01/14 12:22:11;;;;;;;10.98;7.30;;;6.60;81.70;;;;;;5018333;28;20233;-76
2022/01/14 12:24:49;;;;;;;11.65;7.40;;;6.60;81.70;;;;;;5015969;28;20206;-75
2022/01/14 12:27:36;;;;;;;12.10;6.40;;;6.60;81.70;;;;;;5018216;28;20216;-75
2022/01/14 12:30:22;;;;;;;9.85;6.35;;;6.70;81.60;;;;;;5017463;28;20252;-75
2022/01/14 12:32:54;;;;;;;10.68;6.68;;;6.70;81.30;;;;;;5015104;28;20217;-75
2022/01/14 12:35:32;;;;;;;9.00;5.30;;;6.70;81.30;;;;;;5019678;28;20206;-75
2022/01/14 12:38:01;;;;;;;7.30;4.80;;;6.80;81.30;;;;;;5016657;28;20230;-75
2022/01/14 12:40:36;;;;;;;8.45;4.43;;;6.80;81.30;;;;;;5020837;28;20226;-75
2022/01/14 12:43:06;;;;;;;7.85;4.53;;;6.80;81.10;;;;;;4998965;28;20202;-75
2022/01/14 12:45:51;;;;;;;9.85;4.38;;;6.90;81.10;;;;;;4998674;28;20212;-75
2022/01/14 12:48:37;;;;;;;7.65;5.05;;;6.90;80.60;;;;;;5000328;28;20252;-75
2022/01/14 12:51:12;;;;;;;7.35;4.50;;;6.90;80.70;;;;;;5014208;28;20197;-75
2022/01/14 12:53:51;;;;;;;8.38;4.60;;;6.90;80.60;;;;;;5019896;28;20209;-75
2022/01/14 12:56:22;;;;;;;6.85;3.80;;;6.90;80.50;;;;;;5016449;28;20208;-75
2022/01/14 12:59:10;;;;;;;8.85;4.70;;;6.90;80.40;;;;;;5017923;28;20229;-75
2022/01/14 13:01:40;;;;;;;8.10;4.60;;;7.00;80.50;;;;;;5019147;28;20240;-76
2022/01/14 13:04:10;;;;;;;5.75;3.78;;;7.00;80.40;;;;;;5015523;28;20696;-75
2022/01/14 13:06:51;;;;;;;11.63;4.93;;;7.00;80.20;;;;;;5018090;28;20219;-75
2022/01/14 13:09:21;;;;;;;8.18;4.72;;;7.00;80.10;;;;;;5015948;28;20225;-75
2022/01/14 13:11:55;;;;;;;8.63;4.93;;;7.00;80.00;;;;;;5022029;28;20192;-75